sensor_id;sensor_type;location;lat;lon;timestamp;temperature;humidity
72320;SHT30;60269;52.502;16.732;2023-12-14T00:00:37;3.65;99.99
72320;SHT30;60269;52.502;16.732;2023-12-14T00:04:28;3.64;99.99
72320;SHT30;60269;52.502;16.732;2023-12-14T00:08:01;3.68;99.99
72320;SHT30;60269;52.502;16.732;2023-12-14T00:11:37;3.68;99.99
72320;SHT30;60269;52.502;16.732;2023-12-14T00:15:10;3.65;99.99
72320;SHT30;60269;52.502;16.732;2023-12-14T00:18:42;3.65;99.99
72320;SHT30;60269;52.502;16.732;2023-12-14T00:22:14;3.68;99.99
72320;SHT30;60269;52.502;16.732;2023-12-14T00:25:46;3.61;99.99
72320;SHT30;60269;52.502;16.732;2023-12-14T00:29:18;3.61;99.99
72320;SHT30;60269;52.502;16.732;2023-12-14T00:32:50;3.61;99.99
72320;SHT30;60269;52.502;16.732;2023-12-14T00:36:22;3.65;99.99
72320;SHT30;60269;52.502;16.732;2023-12-14T00:39:54;3.52;99.99
72320;SHT30;60269;52.502;16.732;2023-12-14T00:43:26;3.44;99.99
72320;SHT30;60269;52.502;16.732;2023-12-14T00:46:58;3.38;99.99
72320;SHT30;60269;52.502;16.732;2023-12-14T00:50:32;3.35;99.99
72320;SHT30;60269;52.502;16.732;2023-12-14T00:54:04;3.35;99.99
72320;SHT30;60269;52.502;16.732;2023-12-14T00:57:36;3.37;99.99
72320;SHT30;60269;52.502;16.732;2023-12-14T01:01:09;3.31;99.99
72320;SHT30;60269;52.502;16.732;2023-12-14T01:04:41;3.28;99.99
72320;SHT30;60269;52.502;16.732;2023-12-14T01:08:14;3.27;99.99
72320;SHT30;60269;52.502;16.732;2023-12-14T01:11:46;3.27;99.99
72320;SHT30;60269;52.502;16.732;2023-12-14T01:15:18;3.30;99.99
72320;SHT30;60269;52.502;16.732;2023-12-14T01:18:50;3.26;99.99
72320;SHT30;60269;52.502;16.732;2023-12-14T01:22:22;3.27;99.99
72320;SHT30;60269;52.502;16.732;2023-12-14T01:25:54;3.24;99.99
72320;SHT30;60269;52.502;16.732;2023-12-14T01:29:26;3.24;99.99
72320;SHT30;60269;52.502;16.732;2023-12-14T01:32:58;3.21;99.99
72320;SHT30;60269;52.502;16.732;2023-12-14T01:36:30;3.23;99.99
72320;SHT30;60269;52.502;16.732;2023-12-14T01:40:02;3.19;99.99
72320;SHT30;60269;52.502;16.732;2023-12-14T01:43:35;3.16;99.99
72320;SHT30;60269;52.502;16.732;2023-12-14T01:47:06;3.14;99.99
72320;SHT30;60269;52.502;16.732;2023-12-14T01:50:38;3.13;99.99
72320;SHT30;60269;52.502;16.732;2023-12-14T01:54:10;3.10;99.99
72320;SHT30;60269;52.502;16.732;2023-12-14T01:57:42;3.06;99.99
72320;SHT30;60269;52.502;16.732;2023-12-14T02:01:44;3.04;99.99
72320;SHT30;60269;52.502;16.732;2023-12-14T02:05:16;3.04;99.99
72320;SHT30;60269;52.502;16.732;2023-12-14T02:08:48;3.00;99.99
72320;SHT30;60269;52.502;16.732;2023-12-14T02:12:21;2.99;99.99
72320;SHT30;60269;52.502;16.732;2023-12-14T02:15:53;2.99;99.99
72320;SHT30;60269;52.502;16.732;2023-12-14T02:19:25;3.00;99.99
72320;SHT30;60269;52.502;16.732;2023-12-14T02:22:57;2.97;99.99
72320;SHT30;60269;52.502;16.732;2023-12-14T02:26:30;3.00;99.99
72320;SHT30;60269;52.502;16.732;2023-12-14T02:30:02;2.96;99.99
72320;SHT30;60269;52.502;16.732;2023-12-14T02:33:34;2.91;99.99
72320;SHT30;60269;52.502;16.732;2023-12-14T02:37:07;2.93;99.99
72320;SHT30;60269;52.502;16.732;2023-12-14T02:40:39;2.92;99.99
72320;SHT30;60269;52.502;16.732;2023-12-14T02:44:11;2.89;99.99
72320;SHT30;60269;52.502;16.732;2023-12-14T02:47:44;2.89;99.99
72320;SHT30;60269;52.502;16.732;2023-12-14T02:51:17;2.86;99.99
72320;SHT30;60269;52.502;16.732;2023-12-14T02:54:48;2.86;99.99
72320;SHT30;60269;52.502;16.732;2023-12-14T02:58:21;2.78;99.99
72320;SHT30;60269;52.502;16.732;2023-12-14T03:01:52;2.82;99.99
72320;SHT30;60269;52.502;16.732;2023-12-14T03:05:26;2.81;99.99
72320;SHT30;60269;52.502;16.732;2023-12-14T03:08:58;2.82;99.99
72320;SHT30;60269;52.502;16.732;2023-12-14T03:12:31;2.81;99.99
72320;SHT30;60269;52.502;16.732;2023-12-14T03:16:04;2.91;99.99
72320;SHT30;60269;52.502;16.732;2023-12-14T03:19:36;2.88;99.99
72320;SHT30;60269;52.502;16.732;2023-12-14T03:23:08;2.82;99.99
72320;SHT30;60269;52.502;16.732;2023-12-14T03:26:40;2.81;99.99
72320;SHT30;60269;52.502;16.732;2023-12-14T03:30:12;2.79;99.99
72320;SHT30;60269;52.502;16.732;2023-12-14T03:33:45;2.73;99.99
72320;SHT30;60269;52.502;16.732;2023-12-14T03:37:17;2.71;99.99
72320;SHT30;60269;52.502;16.732;2023-12-14T03:40:49;2.65;99.99
72320;SHT30;60269;52.502;16.732;2023-12-14T03:44:21;2.58;99.99
72320;SHT30;60269;52.502;16.732;2023-12-14T03:47:53;2.58;99.99
72320;SHT30;60269;52.502;16.732;2023-12-14T03:51:26;2.59;99.99
72320;SHT30;60269;52.502;16.732;2023-12-14T03:54:58;2.54;99.99
72320;SHT30;60269;52.502;16.732;2023-12-14T03:58:30;2.52;99.99
72320;SHT30;60269;52.502;16.732;2023-12-14T04:06:03;2.46;99.99
72320;SHT30;60269;52.502;16.732;2023-12-14T04:09:35;2.49;99.99
72320;SHT30;60269;52.502;16.732;2023-12-14T04:13:07;2.45;99.99
72320;SHT30;60269;52.502;16.732;2023-12-14T04:16:39;2.44;99.99
72320;SHT30;60269;52.502;16.732;2023-12-14T04:20:13;2.40;99.99
72320;SHT30;60269;52.502;16.732;2023-12-14T04:23:47;2.35;99.99
72320;SHT30;60269;52.502;16.732;2023-12-14T04:27:19;2.31;99.99
72320;SHT30;60269;52.502;16.732;2023-12-14T04:30:52;2.27;99.99
72320;SHT30;60269;52.502;16.732;2023-12-14T04:34:24;2.27;99.99
72320;SHT30;60269;52.502;16.732;2023-12-14T04:37:56;2.25;99.99
72320;SHT30;60269;52.502;16.732;2023-12-14T04:41:29;2.24;99.99
72320;SHT30;60269;52.502;16.732;2023-12-14T04:45:00;2.23;99.99
72320;SHT30;60269;52.502;16.732;2023-12-14T04:48:33;2.18;99.99
72320;SHT30;60269;52.502;16.732;2023-12-14T04:52:05;2.17;99.99
72320;SHT30;60269;52.502;16.732;2023-12-14T04:55:37;2.14;99.99
72320;SHT30;60269;52.502;16.732;2023-12-14T04:59:09;2.17;99.99
72320;SHT30;60269;52.502;16.732;2023-12-14T05:02:41;2.15;99.99
72320;SHT30;60269;52.502;16.732;2023-12-14T05:06:13;2.14;99.99
72320;SHT30;60269;52.502;16.732;2023-12-14T05:09:47;2.15;99.99
72320;SHT30;60269;52.502;16.732;2023-12-14T05:13:19;2.14;99.99
72320;SHT30;60269;52.502;16.732;2023-12-14T05:16:51;2.13;99.99
72320;SHT30;60269;52.502;16.732;2023-12-14T05:20:23;2.10;99.99
72320;SHT30;60269;52.502;16.732;2023-12-14T05:23:55;2.11;99.99
72320;SHT30;60269;52.502;16.732;2023-12-14T05:27:27;2.13;99.99
72320;SHT30;60269;52.502;16.732;2023-12-14T05:30:59;2.11;99.99
72320;SHT30;60269;52.502;16.732;2023-12-14T05:34:31;2.10;99.99
72320;SHT30;60269;52.502;16.732;2023-12-14T05:38:03;2.11;99.99
72320;SHT30;60269;52.502;16.732;2023-12-14T05:41:42;2.07;99.99
72320;SHT30;60269;52.502;16.732;2023-12-14T05:45:14;2.09;99.99
72320;SHT30;60269;52.502;16.732;2023-12-14T05:48:46;2.06;99.99
72320;SHT30;60269;52.502;16.732;2023-12-14T05:52:19;2.09;99.99
72320;SHT30;60269;52.502;16.732;2023-12-14T05:55:51;2.03;99.99
72320;SHT30;60269;52.502;16.732;2023-12-14T05:59:23;2.03;99.99
72320;SHT30;60269;52.502;16.732;2023-12-14T06:02:55;2.02;99.99
72320;SHT30;60269;52.502;16.732;2023-12-14T06:06:27;2.00;99.99
72320;SHT30;60269;52.502;16.732;2023-12-14T06:10:00;1.96;99.99
72320;SHT30;60269;52.502;16.732;2023-12-14T06:13:33;1.97;99.99
72320;SHT30;60269;52.502;16.732;2023-12-14T06:17:05;1.94;99.99
72320;SHT30;60269;52.502;16.732;2023-12-14T06:20:39;1.94;99.99
72320;SHT30;60269;52.502;16.732;2023-12-14T06:24:12;1.96;99.99
72320;SHT30;60269;52.502;16.732;2023-12-14T06:27:44;1.94;99.99
72320;SHT30;60269;52.502;16.732;2023-12-14T06:31:17;1.96;99.99
72320;SHT30;60269;52.502;16.732;2023-12-14T06:34:50;1.90;99.99
72320;SHT30;60269;52.502;16.732;2023-12-14T06:38:22;1.92;99.99
72320;SHT30;60269;52.502;16.732;2023-12-14T06:41:54;1.96;99.99
72320;SHT30;60269;52.502;16.732;2023-12-14T06:45:28;1.94;99.99
72320;SHT30;60269;52.502;16.732;2023-12-14T06:49:00;1.96;99.99
72320;SHT30;60269;52.502;16.732;2023-12-14T06:52:32;1.92;99.99
72320;SHT30;60269;52.502;16.732;2023-12-14T06:56:05;1.94;99.99
72320;SHT30;60269;52.502;16.732;2023-12-14T06:59:42;1.96;99.99
72320;SHT30;60269;52.502;16.732;2023-12-14T07:03:14;1.92;99.99
72320;SHT30;60269;52.502;16.732;2023-12-14T07:06:51;1.93;99.99
72320;SHT30;60269;52.502;16.732;2023-12-14T07:10:24;1.99;99.99
72320;SHT30;60269;52.502;16.732;2023-12-14T07:13:56;1.96;99.99
72320;SHT30;60269;52.502;16.732;2023-12-14T07:17:28;1.97;99.99
72320;SHT30;60269;52.502;16.732;2023-12-14T07:21:01;1.94;99.99
72320;SHT30;60269;52.502;16.732;2023-12-14T07:24:33;1.99;99.99
72320;SHT30;60269;52.502;16.732;2023-12-14T07:28:19;1.99;99.99
72320;SHT30;60269;52.502;16.732;2023-12-14T07:31:51;2.00;99.99
72320;SHT30;60269;52.502;16.732;2023-12-14T07:35:23;2.02;99.99
72320;SHT30;60269;52.502;16.732;2023-12-14T07:38:55;2.04;99.99
72320;SHT30;60269;52.502;16.732;2023-12-14T07:42:27;2.07;99.99
72320;SHT30;60269;52.502;16.732;2023-12-14T07:45:59;2.09;99.99
72320;SHT30;60269;52.502;16.732;2023-12-14T07:49:31;2.07;99.99
72320;SHT30;60269;52.502;16.732;2023-12-14T07:53:03;2.06;99.99
72320;SHT30;60269;52.502;16.732;2023-12-14T07:56:36;2.10;99.99
72320;SHT30;60269;52.502;16.732;2023-12-14T08:00:09;2.15;99.99
72320;SHT30;60269;52.502;16.732;2023-12-14T08:03:41;2.11;99.99
72320;SHT30;60269;52.502;16.732;2023-12-14T08:07:13;2.20;99.99
72320;SHT30;60269;52.502;16.732;2023-12-14T08:10:45;2.20;99.99
72320;SHT30;60269;52.502;16.732;2023-12-14T08:14:17;2.23;99.99
72320;SHT30;60269;52.502;16.732;2023-12-14T08:17:49;2.27;99.99
72320;SHT30;60269;52.502;16.732;2023-12-14T08:21:22;2.33;99.99
72320;SHT30;60269;52.502;16.732;2023-12-14T08:24:54;2.31;99.99
72320;SHT30;60269;52.502;16.732;2023-12-14T08:28:26;2.30;99.99
72320;SHT30;60269;52.502;16.732;2023-12-14T08:31:58;2.30;99.99
72320;SHT30;60269;52.502;16.732;2023-12-14T08:35:31;2.38;99.99
72320;SHT30;60269;52.502;16.732;2023-12-14T08:39:03;2.48;99.99
72320;SHT30;60269;52.502;16.732;2023-12-14T08:42:35;2.45;99.99
72320;SHT30;60269;52.502;16.732;2023-12-14T08:46:08;2.44;99.99
72320;SHT30;60269;52.502;16.732;2023-12-14T08:49:41;2.48;99.99
72320;SHT30;60269;52.502;16.732;2023-12-14T08:53:13;2.55;99.99
72320;SHT30;60269;52.502;16.732;2023-12-14T08:56:45;2.52;99.99
72320;SHT30;60269;52.502;16.732;2023-12-14T09:00:18;2.52;99.81
72320;SHT30;60269;52.502;16.732;2023-12-14T09:03:50;2.51;99.91
72320;SHT30;60269;52.502;16.732;2023-12-14T09:07:22;2.54;99.92
72320;SHT30;60269;52.502;16.732;2023-12-14T09:10:54;2.52;99.81
72320;SHT30;60269;52.502;16.732;2023-12-14T09:14:27;2.52;99.97
72320;SHT30;60269;52.502;16.732;2023-12-14T09:17:59;2.52;99.97
72320;SHT30;60269;52.502;16.732;2023-12-14T09:21:31;2.59;99.57
72320;SHT30;60269;52.502;16.732;2023-12-14T09:25:15;2.65;99.81
72320;SHT30;60269;52.502;16.732;2023-12-14T09:28:47;2.56;99.53
72320;SHT30;60269;52.502;16.732;2023-12-14T09:32:19;2.52;98.72
72320;SHT30;60269;52.502;16.732;2023-12-14T09:35:51;2.59;99.18
72320;SHT30;60269;52.502;16.732;2023-12-14T09:39:23;2.65;98.61
72320;SHT30;60269;52.502;16.732;2023-12-14T09:42:55;2.71;98.18
72320;SHT30;60269;52.502;16.732;2023-12-14T09:46:27;2.76;97.65
72320;SHT30;60269;52.502;16.732;2023-12-14T09:50:00;2.79;97.65
72320;SHT30;60269;52.502;16.732;2023-12-14T09:53:32;2.85;97.19
72320;SHT30;60269;52.502;16.732;2023-12-14T09:57:04;2.89;97.14
72320;SHT30;60269;52.502;16.732;2023-12-14T10:00:38;2.97;96.81
72320;SHT30;60269;52.502;16.732;2023-12-14T10:04:15;3.14;96.54
72320;SHT30;60269;52.502;16.732;2023-12-14T10:07:47;3.14;96.17
72320;SHT30;60269;52.502;16.732;2023-12-14T10:11:19;3.30;95.87
72320;SHT30;60269;52.502;16.732;2023-12-14T10:15:00;3.28;95.55
72320;SHT30;60269;52.502;16.732;2023-12-14T10:18:33;3.26;95.37
72320;SHT30;60269;52.502;16.732;2023-12-14T10:22:09;3.28;95.70
72320;SHT30;60269;52.502;16.732;2023-12-14T10:25:42;3.33;95.50
72320;SHT30;60269;52.502;16.732;2023-12-14T10:29:14;3.35;95.69
72320;SHT30;60269;52.502;16.732;2023-12-14T10:32:48;3.47;95.29
72320;SHT30;60269;52.502;16.732;2023-12-14T10:36:22;3.50;95.14
72320;SHT30;60269;52.502;16.732;2023-12-14T10:39:57;3.60;94.52
72320;SHT30;60269;52.502;16.732;2023-12-14T10:43:29;3.57;94.22
72320;SHT30;60269;52.502;16.732;2023-12-14T10:47:20;3.62;94.20
72320;SHT30;60269;52.502;16.732;2023-12-14T10:50:53;3.60;94.35
72320;SHT30;60269;52.502;16.732;2023-12-14T10:54:31;3.60;94.44
72320;SHT30;60269;52.502;16.732;2023-12-14T10:58:04;3.61;94.08
72320;SHT30;60269;52.502;16.732;2023-12-14T11:01:37;3.57;94.06
72320;SHT30;60269;52.502;16.732;2023-12-14T11:05:15;3.48;94.11
72320;SHT30;60269;52.502;16.732;2023-12-14T11:09:04;3.58;94.29
72320;SHT30;60269;52.502;16.732;2023-12-14T11:12:57;3.62;93.56
72320;SHT30;60269;52.502;16.732;2023-12-14T11:16:32;3.74;93.42
72320;SHT30;60269;52.502;16.732;2023-12-14T11:20:24;3.79;92.73
72320;SHT30;60269;52.502;16.732;2023-12-14T11:24:01;3.90;92.91
72320;SHT30;60269;52.502;16.732;2023-12-14T11:27:42;3.83;92.08
72320;SHT30;60269;52.502;16.732;2023-12-14T11:31:14;3.79;91.78
72320;SHT30;60269;52.502;16.732;2023-12-14T11:34:48;3.78;92.13
72320;SHT30;60269;52.502;16.732;2023-12-14T11:38:20;3.77;92.18
72320;SHT30;60269;52.502;16.732;2023-12-14T11:45:32;3.81;91.88
72320;SHT30;60269;52.502;16.732;2023-12-14T11:49:04;3.77;92.26
72320;SHT30;60269;52.502;16.732;2023-12-14T11:52:37;3.79;91.55
72320;SHT30;60269;52.502;16.732;2023-12-14T11:56:09;3.65;90.85
72320;SHT30;60269;52.502;16.732;2023-12-14T11:59:42;3.61;90.44
72320;SHT30;60269;52.502;16.732;2023-12-14T12:03:18;3.62;91.09
72320;SHT30;60269;52.502;16.732;2023-12-14T12:07:04;3.55;91.24
72320;SHT30;60269;52.502;16.732;2023-12-14T12:10:42;3.58;90.93
72320;SHT30;60269;52.502;16.732;2023-12-14T12:14:17;3.51;90.69
72320;SHT30;60269;52.502;16.732;2023-12-14T12:17:49;3.38;90.95
72320;SHT30;60269;52.502;16.732;2023-12-14T12:21:21;3.23;89.88
72320;SHT30;60269;52.502;16.732;2023-12-14T12:24:53;3.13;90.50
72320;SHT30;60269;52.502;16.732;2023-12-14T12:28:39;3.06;90.40
72320;SHT30;60269;52.502;16.732;2023-12-14T12:32:11;3.09;91.21
72320;SHT30;60269;52.502;16.732;2023-12-14T12:35:43;3.14;90.62
72320;SHT30;60269;52.502;16.732;2023-12-14T12:39:15;3.12;90.79
72320;SHT30;60269;52.502;16.732;2023-12-14T12:42:48;3.00;90.78
72320;SHT30;60269;52.502;16.732;2023-12-14T12:46:20;3.02;90.53
72320;SHT30;60269;52.502;16.732;2023-12-14T12:49:52;3.07;89.88
72320;SHT30;60269;52.502;16.732;2023-12-14T12:53:24;3.07;89.45
72320;SHT30;60269;52.502;16.732;2023-12-14T12:56:56;3.09;89.14
72320;SHT30;60269;52.502;16.732;2023-12-14T13:00:28;3.02;88.77
72320;SHT30;60269;52.502;16.732;2023-12-14T13:04:01;3.00;88.58
72320;SHT30;60269;52.502;16.732;2023-12-14T13:07:36;2.89;89.30
72320;SHT30;60269;52.502;16.732;2023-12-14T13:11:09;2.86;89.42
72320;SHT30;60269;52.502;16.732;2023-12-14T13:14:41;2.88;89.77
72320;SHT30;60269;52.502;16.732;2023-12-14T13:18:13;2.91;89.44
72320;SHT30;60269;52.502;16.732;2023-12-14T13:21:49;2.89;89.12
72320;SHT30;60269;52.502;16.732;2023-12-14T13:25:20;2.86;89.34
72320;SHT30;60269;52.502;16.732;2023-12-14T13:28:55;2.83;89.17
72320;SHT30;60269;52.502;16.732;2023-12-14T13:32:27;2.86;88.41
72320;SHT30;60269;52.502;16.732;2023-12-14T13:36:00;2.78;88.31
72320;SHT30;60269;52.502;16.732;2023-12-14T13:39:31;2.76;88.14
72320;SHT30;60269;52.502;16.732;2023-12-14T13:43:06;2.73;88.52
72320;SHT30;60269;52.502;16.732;2023-12-14T13:46:42;2.66;87.77
72320;SHT30;60269;52.502;16.732;2023-12-14T13:50:14;2.61;87.90
72320;SHT30;60269;52.502;16.732;2023-12-14T13:53:46;2.54;87.50
72320;SHT30;60269;52.502;16.732;2023-12-14T13:57:18;2.51;87.95
72320;SHT30;60269;52.502;16.732;2023-12-14T14:00:52;2.46;88.39
72320;SHT30;60269;52.502;16.732;2023-12-14T14:04:25;2.45;88.86
72320;SHT30;60269;52.502;16.732;2023-12-14T14:07:58;2.33;88.85
72320;SHT30;60269;52.502;16.732;2023-12-14T14:11:30;2.33;88.92
72320;SHT30;60269;52.502;16.732;2023-12-14T14:15:03;2.31;88.74
72320;SHT30;60269;52.502;16.732;2023-12-14T14:18:35;2.28;89.13
72320;SHT30;60269;52.502;16.732;2023-12-14T14:22:08;2.21;89.38
72320;SHT30;60269;52.502;16.732;2023-12-14T14:25:40;2.20;88.18
72320;SHT30;60269;52.502;16.732;2023-12-14T14:29:12;2.14;88.37
72320;SHT30;60269;52.502;16.732;2023-12-14T14:32:44;2.14;88.22
72320;SHT30;60269;52.502;16.732;2023-12-14T14:36:17;2.11;88.60
72320;SHT30;60269;52.502;16.732;2023-12-14T14:39:49;2.03;88.84
72320;SHT30;60269;52.502;16.732;2023-12-14T14:43:21;1.93;89.43
72320;SHT30;60269;52.502;16.732;2023-12-14T14:46:54;1.92;89.11
72320;SHT30;60269;52.502;16.732;2023-12-14T14:50:26;1.89;89.30
72320;SHT30;60269;52.502;16.732;2023-12-14T14:53:58;1.89;88.66
72320;SHT30;60269;52.502;16.732;2023-12-14T14:57:31;1.86;88.89
72320;SHT30;60269;52.502;16.732;2023-12-14T15:01:05;1.83;88.93
72320;SHT30;60269;52.502;16.732;2023-12-14T15:04:37;1.85;89.08
72320;SHT30;60269;52.502;16.732;2023-12-14T15:08:10;1.80;89.15
72320;SHT30;60269;52.502;16.732;2023-12-14T15:11:42;1.80;89.13
72320;SHT30;60269;52.502;16.732;2023-12-14T15:15:14;1.76;89.83
72320;SHT30;60269;52.502;16.732;2023-12-14T15:18:46;1.75;90.06
72320;SHT30;60269;52.502;16.732;2023-12-14T15:22:18;1.70;90.17
72320;SHT30;60269;52.502;16.732;2023-12-14T15:25:51;1.69;90.09
72320;SHT30;60269;52.502;16.732;2023-12-14T15:29:23;1.72;89.93
72320;SHT30;60269;52.502;16.732;2023-12-14T15:32:55;1.65;90.29
72320;SHT30;60269;52.502;16.732;2023-12-14T15:36:27;1.66;90.23
72320;SHT30;60269;52.502;16.732;2023-12-14T15:40:02;1.69;90.09
72320;SHT30;60269;52.502;16.732;2023-12-14T15:43:36;1.67;90.25
72320;SHT30;60269;52.502;16.732;2023-12-14T15:47:08;1.66;90.32
72320;SHT30;60269;52.502;16.732;2023-12-14T15:50:40;1.65;90.55
72320;SHT30;60269;52.502;16.732;2023-12-14T15:54:13;1.58;90.63
72320;SHT30;60269;52.502;16.732;2023-12-14T15:57:45;1.54;90.77
72320;SHT30;60269;52.502;16.732;2023-12-14T16:01:17;1.39;91.49
72320;SHT30;60269;52.502;16.732;2023-12-14T16:04:50;1.34;91.58
72320;SHT30;60269;52.502;16.732;2023-12-14T16:08:21;1.30;91.53
72320;SHT30;60269;52.502;16.732;2023-12-14T16:11:54;1.31;91.62
72320;SHT30;60269;52.502;16.732;2023-12-14T16:15:25;1.34;91.30
72320;SHT30;60269;52.502;16.732;2023-12-14T16:18:57;1.32;91.55
72320;SHT30;60269;52.502;16.732;2023-12-14T16:22:29;1.31;91.67
72320;SHT30;60269;52.502;16.732;2023-12-14T16:26:53;1.25;91.97
72320;SHT30;60269;52.502;16.732;2023-12-14T16:30:30;1.25;91.59
72320;SHT30;60269;52.502;16.732;2023-12-14T16:34:02;1.23;91.72
72320;SHT30;60269;52.502;16.732;2023-12-14T16:37:34;1.20;91.87
72320;SHT30;60269;52.502;16.732;2023-12-14T16:41:06;1.23;91.76
72320;SHT30;60269;52.502;16.732;2023-12-14T16:44:39;1.11;92.22
72320;SHT30;60269;52.502;16.732;2023-12-14T16:48:13;1.09;92.14
72320;SHT30;60269;52.502;16.732;2023-12-14T16:51:45;1.08;92.34
72320;SHT30;60269;52.502;16.732;2023-12-14T16:55:17;1.13;92.36
72320;SHT30;60269;52.502;16.732;2023-12-14T16:58:49;1.13;92.68
72320;SHT30;60269;52.502;16.732;2023-12-14T17:02:23;1.17;92.46
72320;SHT30;60269;52.502;16.732;2023-12-14T17:05:55;1.07;92.99
72320;SHT30;60269;52.502;16.732;2023-12-14T17:09:27;0.98;93.03
72320;SHT30;60269;52.502;16.732;2023-12-14T17:13:01;0.90;93.48
72320;SHT30;60269;52.502;16.732;2023-12-14T17:16:34;0.86;93.36
72320;SHT30;60269;52.502;16.732;2023-12-14T17:20:07;0.84;93.61
72320;SHT30;60269;52.502;16.732;2023-12-14T17:23:39;0.84;93.78
72320;SHT30;60269;52.502;16.732;2023-12-14T17:27:11;0.79;93.53
72320;SHT30;60269;52.502;16.732;2023-12-14T17:30:43;0.73;94.05
72320;SHT30;60269;52.502;16.732;2023-12-14T17:34:15;0.65;94.24
72320;SHT30;60269;52.502;16.732;2023-12-14T17:37:47;0.66;94.14
72320;SHT30;60269;52.502;16.732;2023-12-14T17:41:19;0.67;94.30
72320;SHT30;60269;52.502;16.732;2023-12-14T17:44:53;0.65;94.13
72320;SHT30;60269;52.502;16.732;2023-12-14T17:48:24;0.53;94.48
72320;SHT30;60269;52.502;16.732;2023-12-14T17:51:57;0.48;94.69
72320;SHT30;60269;52.502;16.732;2023-12-14T17:55:29;0.53;94.71
72320;SHT30;60269;52.502;16.732;2023-12-14T17:59:01;0.55;94.55
72320;SHT30;60269;52.502;16.732;2023-12-14T18:02:33;0.48;94.73
72320;SHT30;60269;52.502;16.732;2023-12-14T18:06:05;0.37;94.95
72320;SHT30;60269;52.502;16.732;2023-12-14T18:09:37;0.32;95.16
72320;SHT30;60269;52.502;16.732;2023-12-14T18:13:09;0.19;95.70
72320;SHT30;60269;52.502;16.732;2023-12-14T18:16:41;0.22;95.56
72320;SHT30;60269;52.502;16.732;2023-12-14T18:20:15;0.05;95.92
72320;SHT30;60269;52.502;16.732;2023-12-14T18:23:47;-0.07;96.36
72320;SHT30;60269;52.502;16.732;2023-12-14T18:27:19;-0.30;97.23
72320;SHT30;60269;52.502;16.732;2023-12-14T18:30:50;-0.33;97.39
72320;SHT30;60269;52.502;16.732;2023-12-14T18:34:23;-0.48;97.81
72320;SHT30;60269;52.502;16.732;2023-12-14T18:37:55;-0.54;98.24
72320;SHT30;60269;52.502;16.732;2023-12-14T18:41:29;-0.64;98.46
72320;SHT30;60269;52.502;16.732;2023-12-14T18:45:02;-0.62;98.74
72320;SHT30;60269;52.502;16.732;2023-12-14T18:48:37;-0.67;98.86
72320;SHT30;60269;52.502;16.732;2023-12-14T18:52:11;-0.68;99.12
72320;SHT30;60269;52.502;16.732;2023-12-14T18:55:44;-0.78;99.27
72320;SHT30;60269;52.502;16.732;2023-12-14T18:59:16;-0.74;99.22
72320;SHT30;60269;52.502;16.732;2023-12-14T19:02:49;-0.72;99.14
72320;SHT30;60269;52.502;16.732;2023-12-14T19:06:21;-0.77;99.70
72320;SHT30;60269;52.502;16.732;2023-12-14T19:09:54;-0.81;99.91
72320;SHT30;60269;52.502;16.732;2023-12-14T19:13:26;-0.81;99.99
72320;SHT30;60269;52.502;16.732;2023-12-14T19:16:58;-0.78;99.99
72320;SHT30;60269;52.502;16.732;2023-12-14T19:20:30;-0.79;99.96
72320;SHT30;60269;52.502;16.732;2023-12-14T19:24:02;-0.85;99.99
72320;SHT30;60269;52.502;16.732;2023-12-14T19:27:35;-0.85;99.99
72320;SHT30;60269;52.502;16.732;2023-12-14T19:31:07;-0.89;99.99
72320;SHT30;60269;52.502;16.732;2023-12-14T19:34:39;-0.89;99.99
72320;SHT30;60269;52.502;16.732;2023-12-14T19:38:13;-0.91;99.99
72320;SHT30;60269;52.502;16.732;2023-12-14T19:41:45;-0.98;99.99
72320;SHT30;60269;52.502;16.732;2023-12-14T19:45:17;-1.12;99.99
72320;SHT30;60269;52.502;16.732;2023-12-14T19:48:49;-1.15;99.99
72320;SHT30;60269;52.502;16.732;2023-12-14T19:52:21;-1.19;99.99
72320;SHT30;60269;52.502;16.732;2023-12-14T19:55:53;-1.15;99.99
72320;SHT30;60269;52.502;16.732;2023-12-14T19:59:25;-1.26;99.99
72320;SHT30;60269;52.502;16.732;2023-12-14T20:02:57;-1.29;99.99
72320;SHT30;60269;52.502;16.732;2023-12-14T20:06:29;-1.29;99.99
72320;SHT30;60269;52.502;16.732;2023-12-14T20:10:01;-1.25;99.99
72320;SHT30;60269;52.502;16.732;2023-12-14T20:13:35;-1.33;99.99
72320;SHT30;60269;52.502;16.732;2023-12-14T20:17:07;-1.48;99.99
72320;SHT30;60269;52.502;16.732;2023-12-14T20:20:39;-1.64;99.99
72320;SHT30;60269;52.502;16.732;2023-12-14T20:24:11;-1.74;99.99
72320;SHT30;60269;52.502;16.732;2023-12-14T20:27:43;-1.70;99.99
72320;SHT30;60269;52.502;16.732;2023-12-14T20:31:16;-1.60;99.99
72320;SHT30;60269;52.502;16.732;2023-12-14T20:34:48;-1.61;99.99
72320;SHT30;60269;52.502;16.732;2023-12-14T20:38:20;-1.75;99.99
72320;SHT30;60269;52.502;16.732;2023-12-14T20:41:52;-1.78;99.99
72320;SHT30;60269;52.502;16.732;2023-12-14T20:45:24;-1.67;99.99
72320;SHT30;60269;52.502;16.732;2023-12-14T20:48:56;-1.64;99.99
72320;SHT30;60269;52.502;16.732;2023-12-14T20:52:28;-1.48;99.99
72320;SHT30;60269;52.502;16.732;2023-12-14T20:56:00;-1.56;99.99
72320;SHT30;60269;52.502;16.732;2023-12-14T20:59:32;-1.51;99.99
72320;SHT30;60269;52.502;16.732;2023-12-14T21:03:04;-1.42;99.99
72320;SHT30;60269;52.502;16.732;2023-12-14T21:06:37;-1.42;99.99
72320;SHT30;60269;52.502;16.732;2023-12-14T21:10:09;-1.32;99.99
72320;SHT30;60269;52.502;16.732;2023-12-14T21:13:41;-1.30;99.99
72320;SHT30;60269;52.502;16.732;2023-12-14T21:17:14;-1.40;99.99
72320;SHT30;60269;52.502;16.732;2023-12-14T21:20:46;-1.46;99.99
72320;SHT30;60269;52.502;16.732;2023-12-14T21:24:18;-1.30;99.99
72320;SHT30;60269;52.502;16.732;2023-12-14T21:27:52;-1.23;99.99
72320;SHT30;60269;52.502;16.732;2023-12-14T21:31:27;-1.15;99.99
72320;SHT30;60269;52.502;16.732;2023-12-14T21:34:58;-1.10;99.99
72320;SHT30;60269;52.502;16.732;2023-12-14T21:38:31;-1.05;99.99
72320;SHT30;60269;52.502;16.732;2023-12-14T21:42:04;-1.03;99.99
72320;SHT30;60269;52.502;16.732;2023-12-14T21:45:37;-1.06;99.99
72320;SHT30;60269;52.502;16.732;2023-12-14T21:49:08;-1.20;99.99
72320;SHT30;60269;52.502;16.732;2023-12-14T21:52:49;-1.35;99.99
72320;SHT30;60269;52.502;16.732;2023-12-14T21:56:21;-1.23;99.99
72320;SHT30;60269;52.502;16.732;2023-12-14T21:59:53;-1.16;99.99
72320;SHT30;60269;52.502;16.732;2023-12-14T22:03:25;-1.13;99.99
72320;SHT30;60269;52.502;16.732;2023-12-14T22:06:59;-1.12;99.99
72320;SHT30;60269;52.502;16.732;2023-12-14T22:10:31;-1.00;99.99
72320;SHT30;60269;52.502;16.732;2023-12-14T22:14:03;-0.91;99.99
72320;SHT30;60269;52.502;16.732;2023-12-14T22:17:35;-0.88;99.99
72320;SHT30;60269;52.502;16.732;2023-12-14T22:21:08;-0.77;99.99
72320;SHT30;60269;52.502;16.732;2023-12-14T22:24:41;-0.72;99.99
72320;SHT30;60269;52.502;16.732;2023-12-14T22:28:13;-0.64;99.99